sensor_id;sensor_type;location;lat;lon;timestamp;P1;durP1;ratioP1;P2;durP2;ratioP2
61393;SDS011;48555;50.952;-0.120;2023-02-28T00:00:08;2.72;;;1.20;;
61393;SDS011;48555;50.952;-0.120;2023-02-28T00:02:38;5.95;;;1.30;;
61393;SDS011;48555;50.952;-0.120;2023-02-28T00:05:05;3.45;;;1.33;;
61393;SDS011;48555;50.952;-0.120;2023-02-28T00:07:32;2.60;;;1.23;;
61393;SDS011;48555;50.952;-0.120;2023-02-28T00:09:57;4.38;;;1.42;;
61393;SDS011;48555;50.952;-0.120;2023-02-28T00:12:22;3.72;;;1.10;;
61393;SDS011;48555;50.952;-0.120;2023-02-28T00:14:48;5.95;;;1.08;;
61393;SDS011;48555;50.952;-0.120;2023-02-28T00:17:14;4.05;;;1.13;;
61393;SDS011;48555;50.952;-0.120;2023-02-28T00:19:39;6.93;;;1.85;;
61393;SDS011;48555;50.952;-0.120;2023-02-28T00:22:05;7.72;;;1.30;;
61393;SDS011;48555;50.952;-0.120;2023-02-28T00:24:30;3.22;;;1.38;;
61393;SDS011;48555;50.952;-0.120;2023-02-28T00:26:56;3.50;;;1.13;;
61393;SDS011;48555;50.952;-0.120;2023-02-28T00:29:21;3.17;;;1.02;;
61393;SDS011;48555;50.952;-0.120;2023-02-28T00:31:46;2.67;;;1.02;;
61393;SDS011;48555;50.952;-0.120;2023-02-28T00:34:12;2.88;;;0.98;;
61393;SDS011;48555;50.952;-0.120;2023-02-28T00:36:37;4.85;;;1.27;;
61393;SDS011;48555;50.952;-0.120;2023-02-28T00:39:03;3.13;;;0.85;;
61393;SDS011;48555;50.952;-0.120;2023-02-28T00:41:29;2.40;;;1.17;;
61393;SDS011;48555;50.952;-0.120;2023-02-28T00:43:54;5.82;;;1.33;;
61393;SDS011;48555;50.952;-0.120;2023-02-28T00:46:20;6.22;;;1.63;;
61393;SDS011;48555;50.952;-0.120;2023-02-28T00:48:45;6.25;;;1.42;;
61393;SDS011;48555;50.952;-0.120;2023-02-28T00:51:10;5.22;;;1.30;;
61393;SDS011;48555;50.952;-0.120;2023-02-28T00:53:36;5.32;;;1.17;;
61393;SDS011;48555;50.952;-0.120;2023-02-28T00:56:01;4.18;;;1.13;;
61393;SDS011;48555;50.952;-0.120;2023-02-28T00:58:27;4.70;;;1.13;;
61393;SDS011;48555;50.952;-0.120;2023-02-28T01:00:53;6.57;;;1.23;;
61393;SDS011;48555;50.952;-0.120;2023-02-28T01:03:18;5.72;;;1.30;;
61393;SDS011;48555;50.952;-0.120;2023-02-28T01:05:45;3.70;;;1.17;;
61393;SDS011;48555;50.952;-0.120;2023-02-28T01:08:11;4.05;;;1.00;;
61393;SDS011;48555;50.952;-0.120;2023-02-28T01:10:38;2.28;;;1.17;;
61393;SDS011;48555;50.952;-0.120;2023-02-28T01:13:04;5.45;;;1.60;;
61393;SDS011;48555;50.952;-0.120;2023-02-28T01:15:29;6.15;;;1.45;;
61393;SDS011;48555;50.952;-0.120;2023-02-28T01:17:56;6.05;;;1.15;;
61393;SDS011;48555;50.952;-0.120;2023-02-28T01:20:22;5.50;;;1.70;;
61393;SDS011;48555;50.952;-0.120;2023-02-28T01:22:48;3.15;;;1.02;;
61393;SDS011;48555;50.952;-0.120;2023-02-28T01:25:14;5.43;;;1.50;;
61393;SDS011;48555;50.952;-0.120;2023-02-28T01:27:39;4.38;;;1.58;;
61393;SDS011;48555;50.952;-0.120;2023-02-28T01:30:05;3.88;;;1.35;;
61393;SDS011;48555;50.952;-0.120;2023-02-28T01:32:31;2.47;;;1.10;;
61393;SDS011;48555;50.952;-0.120;2023-02-28T01:34:57;3.85;;;1.17;;
61393;SDS011;48555;50.952;-0.120;2023-02-28T01:37:22;7.00;;;1.45;;
61393;SDS011;48555;50.952;-0.120;2023-02-28T01:39:48;3.80;;;1.40;;
61393;SDS011;48555;50.952;-0.120;2023-02-28T01:42:13;3.72;;;1.52;;
61393;SDS011;48555;50.952;-0.120;2023-02-28T01:47:27;7.32;;;2.08;;
61393;SDS011;48555;50.952;-0.120;2023-02-28T01:49:57;4.90;;;1.50;;
61393;SDS011;48555;50.952;-0.120;2023-02-28T01:52:23;4.60;;;1.50;;
61393;SDS011;48555;50.952;-0.120;2023-02-28T01:54:51;7.38;;;1.70;;
61393;SDS011;48555;50.952;-0.120;2023-02-28T01:57:21;4.82;;;2.10;;
61393;SDS011;48555;50.952;-0.120;2023-02-28T02:02:24;5.78;;;1.60;;
61393;SDS011;48555;50.952;-0.120;2023-02-28T02:07:33;6.38;;;1.60;;
61393;SDS011;48555;50.952;-0.120;2023-02-28T02:15:22;5.60;;;1.50;;
61393;SDS011;48555;50.952;-0.120;2023-02-28T02:17:55;4.97;;;1.45;;
61393;SDS011;48555;50.952;-0.120;2023-02-28T02:20:37;7.15;;;1.95;;
61393;SDS011;48555;50.952;-0.120;2023-02-28T02:23:10;3.92;;;1.25;;
61393;SDS011;48555;50.952;-0.120;2023-02-28T02:36:52;4.85;;;1.60;;
61393;SDS011;48555;50.952;-0.120;2023-02-28T02:39:30;6.20;;;1.75;;
61393;SDS011;48555;50.952;-0.120;2023-02-28T02:42:03;4.30;;;1.92;;
61393;SDS011;48555;50.952;-0.120;2023-02-28T02:44:40;6.78;;;1.70;;
61393;SDS011;48555;50.952;-0.120;2023-02-28T02:47:15;7.00;;;2.20;;
61393;SDS011;48555;50.952;-0.120;2023-02-28T02:49:45;5.38;;;1.80;;
61393;SDS011;48555;50.952;-0.120;2023-02-28T02:52:16;4.40;;;1.58;;
61393;SDS011;48555;50.952;-0.120;2023-02-28T02:54:46;5.35;;;1.63;;
61393;SDS011;48555;50.952;-0.120;2023-02-28T02:57:21;4.90;;;1.75;;
61393;SDS011;48555;50.952;-0.120;2023-02-28T02:59:50;5.65;;;1.77;;
61393;SDS011;48555;50.952;-0.120;2023-02-28T03:02:18;5.00;;;2.08;;
61393;SDS011;48555;50.952;-0.120;2023-02-28T03:04:51;6.65;;;2.10;;
61393;SDS011;48555;50.952;-0.120;2023-02-28T03:07:18;5.43;;;1.83;;
61393;SDS011;48555;50.952;-0.120;2023-02-28T03:09:54;5.13;;;1.90;;
61393;SDS011;48555;50.952;-0.120;2023-02-28T03:12:21;7.15;;;1.90;;
61393;SDS011;48555;50.952;-0.120;2023-02-28T03:14:56;5.30;;;2.13;;
61393;SDS011;48555;50.952;-0.120;2023-02-28T03:17:53;5.13;;;1.87;;
61393;SDS011;48555;50.952;-0.120;2023-02-28T03:20:35;7.85;;;2.30;;
61393;SDS011;48555;50.952;-0.120;2023-02-28T03:23:18;6.32;;;1.90;;
61393;SDS011;48555;50.952;-0.120;2023-02-28T03:30:59;5.97;;;1.80;;
61393;SDS011;48555;50.952;-0.120;2023-02-28T03:36:49;8.18;;;2.65;;
61393;SDS011;48555;50.952;-0.120;2023-02-28T03:39:21;6.00;;;2.03;;
61393;SDS011;48555;50.952;-0.120;2023-02-28T03:44:32;6.20;;;2.30;;
61393;SDS011;48555;50.952;-0.120;2023-02-28T03:47:07;5.72;;;2.25;;
61393;SDS011;48555;50.952;-0.120;2023-02-28T03:49:40;7.97;;;2.40;;
61393;SDS011;48555;50.952;-0.120;2023-02-28T03:52:12;6.10;;;2.53;;
61393;SDS011;48555;50.952;-0.120;2023-02-28T03:54:44;11.13;;;2.33;;
61393;SDS011;48555;50.952;-0.120;2023-02-28T03:59:59;5.22;;;2.28;;
61393;SDS011;48555;50.952;-0.120;2023-02-28T04:02:29;8.13;;;2.58;;
61393;SDS011;48555;50.952;-0.120;2023-02-28T04:04:54;5.68;;;2.15;;
61393;SDS011;48555;50.952;-0.120;2023-02-28T04:07:20;5.75;;;2.42;;
61393;SDS011;48555;50.952;-0.120;2023-02-28T04:09:45;3.63;;;2.08;;
61393;SDS011;48555;50.952;-0.120;2023-02-28T04:12:11;9.02;;;2.92;;
61393;SDS011;48555;50.952;-0.120;2023-02-28T04:14:36;7.15;;;2.63;;
61393;SDS011;48555;50.952;-0.120;2023-02-28T04:17:02;6.55;;;2.70;;
61393;SDS011;48555;50.952;-0.120;2023-02-28T04:19:27;10.10;;;2.35;;
61393;SDS011;48555;50.952;-0.120;2023-02-28T04:21:53;4.63;;;2.63;;
61393;SDS011;48555;50.952;-0.120;2023-02-28T04:24:20;5.65;;;2.75;;
61393;SDS011;48555;50.952;-0.120;2023-02-28T04:26:51;8.40;;;3.17;;
61393;SDS011;48555;50.952;-0.120;2023-02-28T04:31:55;7.97;;;3.03;;
61393;SDS011;48555;50.952;-0.120;2023-02-28T04:34:22;7.47;;;3.25;;
61393;SDS011;48555;50.952;-0.120;2023-02-28T04:36:49;6.28;;;3.30;;
61393;SDS011;48555;50.952;-0.120;2023-02-28T04:39:16;7.75;;;3.53;;
61393;SDS011;48555;50.952;-0.120;2023-02-28T04:41:43;8.60;;;3.20;;
61393;SDS011;48555;50.952;-0.120;2023-02-28T04:44:09;12.55;;;4.35;;
61393;SDS011;48555;50.952;-0.120;2023-02-28T04:46:34;9.52;;;3.95;;
61393;SDS011;48555;50.952;-0.120;2023-02-28T04:49:00;9.75;;;3.67;;
61393;SDS011;48555;50.952;-0.120;2023-02-28T04:51:25;7.85;;;3.67;;
61393;SDS011;48555;50.952;-0.120;2023-02-28T04:53:51;14.35;;;4.25;;
61393;SDS011;48555;50.952;-0.120;2023-02-28T04:56:18;12.07;;;4.07;;
61393;SDS011;48555;50.952;-0.120;2023-02-28T04:58:44;9.88;;;3.97;;
61393;SDS011;48555;50.952;-0.120;2023-02-28T05:01:20;9.75;;;4.18;;
61393;SDS011;48555;50.952;-0.120;2023-02-28T05:03:48;9.45;;;4.57;;
61393;SDS011;48555;50.952;-0.120;2023-02-28T05:06:13;8.05;;;4.22;;
61393;SDS011;48555;50.952;-0.120;2023-02-28T05:08:39;12.55;;;4.88;;
61393;SDS011;48555;50.952;-0.120;2023-02-28T05:11:19;10.55;;;4.90;;
61393;SDS011;48555;50.952;-0.120;2023-02-28T05:13:59;9.77;;;4.65;;
61393;SDS011;48555;50.952;-0.120;2023-02-28T05:16:35;13.77;;;4.38;;
61393;SDS011;48555;50.952;-0.120;2023-02-28T05:19:01;12.05;;;4.93;;
61393;SDS011;48555;50.952;-0.120;2023-02-28T05:24:00;12.02;;;4.90;;
61393;SDS011;48555;50.952;-0.120;2023-02-28T05:26:27;11.45;;;4.70;;
61393;SDS011;48555;50.952;-0.120;2023-02-28T05:28:53;12.40;;;5.05;;
61393;SDS011;48555;50.952;-0.120;2023-02-28T05:31:18;13.10;;;5.18;;
61393;SDS011;48555;50.952;-0.120;2023-02-28T05:33:44;10.68;;;4.80;;
61393;SDS011;48555;50.952;-0.120;2023-02-28T05:36:09;15.98;;;5.50;;
61393;SDS011;48555;50.952;-0.120;2023-02-28T05:38:35;8.88;;;4.65;;
61393;SDS011;48555;50.952;-0.120;2023-02-28T05:41:04;10.02;;;5.00;;
61393;SDS011;48555;50.952;-0.120;2023-02-28T05:43:30;7.05;;;4.57;;
61393;SDS011;48555;50.952;-0.120;2023-02-28T05:45:55;8.30;;;4.80;;
61393;SDS011;48555;50.952;-0.120;2023-02-28T05:48:21;12.73;;;4.43;;
61393;SDS011;48555;50.952;-0.120;2023-02-28T05:50:46;10.75;;;5.05;;
61393;SDS011;48555;50.952;-0.120;2023-02-28T05:53:11;10.90;;;5.18;;
61393;SDS011;48555;50.952;-0.120;2023-02-28T05:55:37;10.00;;;4.88;;
61393;SDS011;48555;50.952;-0.120;2023-02-28T05:58:03;11.68;;;5.07;;
61393;SDS011;48555;50.952;-0.120;2023-02-28T06:00:28;12.48;;;5.18;;
61393;SDS011;48555;50.952;-0.120;2023-02-28T06:02:54;10.88;;;4.93;;
61393;SDS011;48555;50.952;-0.120;2023-02-28T06:05:22;8.98;;;4.40;;
61393;SDS011;48555;50.952;-0.120;2023-02-28T06:07:47;11.75;;;4.65;;
61393;SDS011;48555;50.952;-0.120;2023-02-28T06:10:13;10.60;;;5.13;;
61393;SDS011;48555;50.952;-0.120;2023-02-28T06:12:39;12.30;;;5.97;;
61393;SDS011;48555;50.952;-0.120;2023-02-28T06:15:06;10.63;;;5.50;;
61393;SDS011;48555;50.952;-0.120;2023-02-28T06:17:32;9.95;;;5.13;;
61393;SDS011;48555;50.952;-0.120;2023-02-28T06:19:58;10.05;;;5.55;;
61393;SDS011;48555;50.952;-0.120;2023-02-28T06:22:23;11.60;;;5.68;;
61393;SDS011;48555;50.952;-0.120;2023-02-28T06:24:48;9.57;;;4.68;;
61393;SDS011;48555;50.952;-0.120;2023-02-28T06:27:14;10.68;;;5.65;;
61393;SDS011;48555;50.952;-0.120;2023-02-28T06:29:39;10.77;;;5.32;;
61393;SDS011;48555;50.952;-0.120;2023-02-28T06:32:04;11.48;;;5.53;;
61393;SDS011;48555;50.952;-0.120;2023-02-28T06:34:30;10.80;;;5.18;;
61393;SDS011;48555;50.952;-0.120;2023-02-28T06:36:56;14.98;;;5.22;;
61393;SDS011;48555;50.952;-0.120;2023-02-28T06:39:21;11.73;;;4.70;;
61393;SDS011;48555;50.952;-0.120;2023-02-28T06:41:47;10.27;;;5.07;;
61393;SDS011;48555;50.952;-0.120;2023-02-28T06:44:16;9.90;;;4.80;;
61393;SDS011;48555;50.952;-0.120;2023-02-28T06:46:42;10.98;;;4.50;;
61393;SDS011;48555;50.952;-0.120;2023-02-28T06:49:09;11.98;;;5.32;;
61393;SDS011;48555;50.952;-0.120;2023-02-28T06:51:36;9.88;;;5.00;;
61393;SDS011;48555;50.952;-0.120;2023-02-28T06:54:03;11.40;;;4.43;;
61393;SDS011;48555;50.952;-0.120;2023-02-28T06:56:29;8.77;;;4.20;;
61393;SDS011;48555;50.952;-0.120;2023-02-28T06:58:54;13.55;;;4.95;;
61393;SDS011;48555;50.952;-0.120;2023-02-28T07:01:21;10.88;;;4.97;;
61393;SDS011;48555;50.952;-0.120;2023-02-28T07:03:49;8.68;;;4.68;;
61393;SDS011;48555;50.952;-0.120;2023-02-28T07:06:17;7.70;;;4.75;;
61393;SDS011;48555;50.952;-0.120;2023-02-28T07:08:44;9.63;;;4.57;;
61393;SDS011;48555;50.952;-0.120;2023-02-28T07:11:09;13.50;;;5.18;;
61393;SDS011;48555;50.952;-0.120;2023-02-28T07:13:35;10.23;;;4.60;;
61393;SDS011;48555;50.952;-0.120;2023-02-28T07:16:05;9.82;;;5.15;;
61393;SDS011;48555;50.952;-0.120;2023-02-28T07:18:33;10.38;;;5.03;;
61393;SDS011;48555;50.952;-0.120;2023-02-28T07:21:01;11.68;;;4.55;;
61393;SDS011;48555;50.952;-0.120;2023-02-28T07:23:27;11.52;;;4.25;;
61393;SDS011;48555;50.952;-0.120;2023-02-28T07:25:52;9.85;;;5.22;;
61393;SDS011;48555;50.952;-0.120;2023-02-28T07:28:18;9.57;;;4.65;;
61393;SDS011;48555;50.952;-0.120;2023-02-28T07:30:43;8.80;;;3.97;;
61393;SDS011;48555;50.952;-0.120;2023-02-28T07:33:08;10.57;;;4.30;;
61393;SDS011;48555;50.952;-0.120;2023-02-28T07:35:34;11.10;;;4.82;;
61393;SDS011;48555;50.952;-0.120;2023-02-28T07:37:59;10.80;;;4.65;;
61393;SDS011;48555;50.952;-0.120;2023-02-28T07:40:25;8.07;;;4.28;;
61393;SDS011;48555;50.952;-0.120;2023-02-28T07:42:51;10.35;;;4.18;;
61393;SDS011;48555;50.952;-0.120;2023-02-28T07:45:16;7.80;;;4.22;;
61393;SDS011;48555;50.952;-0.120;2023-02-28T07:47:42;8.63;;;3.90;;
61393;SDS011;48555;50.952;-0.120;2023-02-28T07:50:10;8.48;;;4.22;;
61393;SDS011;48555;50.952;-0.120;2023-02-28T07:52:37;7.70;;;3.90;;
61393;SDS011;48555;50.952;-0.120;2023-02-28T07:55:03;10.85;;;4.15;;
61393;SDS011;48555;50.952;-0.120;2023-02-28T07:57:29;8.80;;;3.72;;
61393;SDS011;48555;50.952;-0.120;2023-02-28T07:59:55;7.82;;;4.03;;
61393;SDS011;48555;50.952;-0.120;2023-02-28T08:02:20;9.15;;;3.85;;
61393;SDS011;48555;50.952;-0.120;2023-02-28T08:04:46;9.55;;;4.28;;
61393;SDS011;48555;50.952;-0.120;2023-02-28T08:07:13;12.80;;;3.97;;
61393;SDS011;48555;50.952;-0.120;2023-02-28T08:09:39;9.20;;;4.10;;
61393;SDS011;48555;50.952;-0.120;2023-02-28T08:12:05;9.63;;;4.07;;
61393;SDS011;48555;50.952;-0.120;2023-02-28T08:14:31;7.63;;;4.20;;
61393;SDS011;48555;50.952;-0.120;2023-02-28T08:16:56;7.10;;;3.63;;
61393;SDS011;48555;50.952;-0.120;2023-02-28T08:19:21;8.05;;;4.28;;
61393;SDS011;48555;50.952;-0.120;2023-02-28T08:21:47;7.70;;;3.95;;
61393;SDS011;48555;50.952;-0.120;2023-02-28T08:24:12;7.55;;;4.03;;
61393;SDS011;48555;50.952;-0.120;2023-02-28T08:26:37;9.73;;;4.03;;
61393;SDS011;48555;50.952;-0.120;2023-02-28T08:29:03;6.63;;;3.83;;
61393;SDS011;48555;50.952;-0.120;2023-02-28T08:31:28;8.20;;;4.10;;
61393;SDS011;48555;50.952;-0.120;2023-02-28T08:33:54;8.93;;;3.88;;
61393;SDS011;48555;50.952;-0.120;2023-02-28T08:36:21;9.00;;;3.70;;
61393;SDS011;48555;50.952;-0.120;2023-02-28T08:38:48;10.05;;;4.50;;
61393;SDS011;48555;50.952;-0.120;2023-02-28T08:41:13;7.57;;;3.50;;
61393;SDS011;48555;50.952;-0.120;2023-02-28T08:43:39;7.80;;;3.55;;
61393;SDS011;48555;50.952;-0.120;2023-02-28T08:46:05;8.57;;;3.53;;
61393;SDS011;48555;50.952;-0.120;2023-02-28T08:48:32;7.63;;;3.42;;
61393;SDS011;48555;50.952;-0.120;2023-02-28T08:51:07;7.75;;;4.10;;
61393;SDS011;48555;50.952;-0.120;2023-02-28T08:53:37;7.60;;;3.42;;
61393;SDS011;48555;50.952;-0.120;2023-02-28T08:56:05;5.88;;;2.80;;
61393;SDS011;48555;50.952;-0.120;2023-02-28T08:58:33;4.95;;;2.70;;
61393;SDS011;48555;50.952;-0.120;2023-02-28T09:00:59;4.03;;;2.47;;
61393;SDS011;48555;50.952;-0.120;2023-02-28T09:03:25;6.30;;;2.80;;
61393;SDS011;48555;50.952;-0.120;2023-02-28T09:05:55;5.03;;;2.65;;
61393;SDS011;48555;50.952;-0.120;2023-02-28T09:08:23;6.70;;;2.67;;
61393;SDS011;48555;50.952;-0.120;2023-02-28T09:10:49;4.22;;;2.17;;
61393;SDS011;48555;50.952;-0.120;2023-02-28T09:13:14;4.65;;;2.22;;
61393;SDS011;48555;50.952;-0.120;2023-02-28T09:15:40;5.43;;;2.17;;
61393;SDS011;48555;50.952;-0.120;2023-02-28T09:18:05;4.18;;;2.17;;
61393;SDS011;48555;50.952;-0.120;2023-02-28T09:20:31;3.67;;;2.10;;
61393;SDS011;48555;50.952;-0.120;2023-02-28T09:22:56;5.05;;;2.13;;
61393;SDS011;48555;50.952;-0.120;2023-02-28T09:25:21;4.82;;;2.35;;
61393;SDS011;48555;50.952;-0.120;2023-02-28T09:27:47;3.08;;;1.75;;
61393;SDS011;48555;50.952;-0.120;2023-02-28T09:30:12;5.00;;;2.13;;
61393;SDS011;48555;50.952;-0.120;2023-02-28T09:32:38;3.30;;;1.95;;
61393;SDS011;48555;50.952;-0.120;2023-02-28T09:35:04;4.07;;;2.00;;
61393;SDS011;48555;50.952;-0.120;2023-02-28T09:37:30;3.90;;;1.65;;
61393;SDS011;48555;50.952;-0.120;2023-02-28T09:39:56;3.15;;;2.13;;
61393;SDS011;48555;50.952;-0.120;2023-02-28T09:42:23;3.30;;;1.58;;
61393;SDS011;48555;50.952;-0.120;2023-02-28T09:44:56;3.75;;;2.10;;
61393;SDS011;48555;50.952;-0.120;2023-02-28T09:47:34;5.28;;;2.08;;
61393;SDS011;48555;50.952;-0.120;2023-02-28T09:52:51;4.03;;;2.00;;
61393;SDS011;48555;50.952;-0.120;2023-02-28T09:57:55;4.32;;;1.88;;
61393;SDS011;48555;50.952;-0.120;2023-02-28T10:00:27;3.08;;;1.70;;
61393;SDS011;48555;50.952;-0.120;2023-02-28T10:03:06;3.15;;;1.80;;
61393;SDS011;48555;50.952;-0.120;2023-02-28T10:10:43;4.13;;;1.90;;
61393;SDS011;48555;50.952;-0.120;2023-02-28T10:13:13;3.97;;;1.70;;
61393;SDS011;48555;50.952;-0.120;2023-02-28T10:15:44;2.85;;;1.88;;
61393;SDS011;48555;50.952;-0.120;2023-02-28T10:18:13;3.35;;;1.77;;
61393;SDS011;48555;50.952;-0.120;2023-02-28T10:20:44;2.50;;;1.70;;
61393;SDS011;48555;50.952;-0.120;2023-02-28T10:28:43;4.80;;;1.60;;
61393;SDS011;48555;50.952;-0.120;2023-02-28T10:31:11;2.33;;;1.60;;
61393;SDS011;48555;50.952;-0.120;2023-02-28T10:33:42;1.67;;;1.52;;
61393;SDS011;48555;50.952;-0.120;2023-02-28T10:36:08;3.03;;;1.63;;
61393;SDS011;48555;50.952;-0.120;2023-02-28T10:38:39;3.50;;;1.73;;
61393;SDS011;48555;50.952;-0.120;2023-02-28T10:43:39;4.05;;;1.90;;
61393;SDS011;48555;50.952;-0.120;2023-02-28T10:51:18;2.17;;;1.50;;
61393;SDS011;48555;50.952;-0.120;2023-02-28T10:53:51;2.42;;;1.40;;
61393;SDS011;48555;50.952;-0.120;2023-02-28T10:56:18;1.45;;;1.30;;
61393;SDS011;48555;50.952;-0.120;2023-02-28T10:58:58;3.05;;;1.40;;
61393;SDS011;48555;50.952;-0.120;2023-02-28T11:03:55;3.78;;;1.70;;
61393;SDS011;48555;50.952;-0.120;2023-02-28T11:06:26;2.30;;;1.35;;
61393;SDS011;48555;50.952;-0.120;2023-02-28T11:08:57;2.92;;;1.23;;
61393;SDS011;48555;50.952;-0.120;2023-02-28T11:11:26;1.92;;;1.20;;
61393;SDS011;48555;50.952;-0.120;2023-02-28T11:13:57;3.97;;;1.10;;
61393;SDS011;48555;50.952;-0.120;2023-02-28T11:16:33;1.02;;;0.70;;
61393;SDS011;48555;50.952;-0.120;2023-02-28T11:19:02;1.95;;;1.00;;
61393;SDS011;48555;50.952;-0.120;2023-02-28T11:21:35;1.60;;;1.10;;
61393;SDS011;48555;50.952;-0.120;2023-02-28T11:26:47;1.70;;;1.40;;
61393;SDS011;48555;50.952;-0.120;2023-02-28T11:34:33;1.40;;;1.30;;
61393;SDS011;48555;50.952;-0.120;2023-02-28T11:37:01;2.55;;;1.30;;
61393;SDS011;48555;50.952;-0.120;2023-02-28T11:39:30;2.28;;;1.50;;
61393;SDS011;48555;50.952;-0.120;2023-02-28T11:53:21;1.70;;;1.20;;
61393;SDS011;48555;50.952;-0.120;2023-02-28T11:55:51;2.65;;;1.60;;
61393;SDS011;48555;50.952;-0.120;2023-02-28T11:58:52;2.88;;;1.50;;
61393;SDS011;48555;50.952;-0.120;2023-02-28T12:01:33;4.60;;;1.65;;
61393;SDS011;48555;50.952;-0.120;2023-02-28T12:06:46;4.10;;;1.52;;
61393;SDS011;48555;50.952;-0.120;2023-02-28T12:12:06;4.35;;;1.80;;
61393;SDS011;48555;50.952;-0.120;2023-02-28T12:14:49;2.47;;;1.40;;
61393;SDS011;48555;50.952;-0.120;2023-02-28T12:17:21;1.92;;;1.60;;
61393;SDS011;48555;50.952;-0.120;2023-02-28T12:22:53;3.97;;;1.77;;
61393;SDS011;48555;50.952;-0.120;2023-02-28T12:25:21;4.03;;;1.80;;
61393;SDS011;48555;50.952;-0.120;2023-02-28T12:27:58;5.20;;;1.60;;
61393;SDS011;48555;50.952;-0.120;2023-02-28T12:30:34;4.25;;;1.83;;
61393;SDS011;48555;50.952;-0.120;2023-02-28T12:33:07;4.78;;;2.25;;
61393;SDS011;48555;50.952;-0.120;2023-02-28T12:35:51;3.65;;;1.90;;
61393;SDS011;48555;50.952;-0.120;2023-02-28T12:38:34;3.53;;;1.92;;
61393;SDS011;48555;50.952;-0.120;2023-02-28T12:43:36;3.13;;;1.75;;
61393;SDS011;48555;50.952;-0.120;2023-02-28T12:51:07;3.83;;;1.30;;
61393;SDS011;48555;50.952;-0.120;2023-02-28T12:58:45;2.90;;;1.90;;
61393;SDS011;48555;50.952;-0.120;2023-02-28T13:09:23;4.85;;;1.88;;
61393;SDS011;48555;50.952;-0.120;2023-02-28T13:11:49;2.83;;;1.80;;
61393;SDS011;48555;50.952;-0.120;2023-02-28T13:14:29;3.50;;;1.88;;
61393;SDS011;48555;50.952;-0.120;2023-02-28T13:17:02;2.60;;;1.80;;
61393;SDS011;48555;50.952;-0.120;2023-02-28T13:19:35;3.65;;;2.03;;
61393;SDS011;48555;50.952;-0.120;2023-02-28T13:22:03;6.10;;;2.35;;
61393;SDS011;48555;50.952;-0.120;2023-02-28T13:24:40;3.83;;;2.13;;
61393;SDS011;48555;50.952;-0.120;2023-02-28T13:29:35;4.00;;;2.10;;
61393;SDS011;48555;50.952;-0.120;2023-02-28T13:34:28;4.38;;;2.20;;
61393;SDS011;48555;50.952;-0.120;2023-02-28T13:37:42;4.55;;;2.25;;
61393;SDS011;48555;50.952;-0.120;2023-02-28T13:47:31;4.65;;;2.40;;
61393;SDS011;48555;50.952;-0.120;2023-02-28T13:50:34;2.35;;;1.70;;
61393;SDS011;48555;50.952;-0.120;2023-02-28T13:53:16;3.13;;;2.03;;
61393;SDS011;48555;50.952;-0.120;2023-02-28T13:58:57;4.10;;;2.20;;
61393;SDS011;48555;50.952;-0.120;2023-02-28T14:07:03;3.35;;;2.05;;
61393;SDS011;48555;50.952;-0.120;2023-02-28T14:11:55;5.22;;;2.17;;
61393;SDS011;48555;50.952;-0.120;2023-02-28T14:17:01;3.38;;;2.30;;
61393;SDS011;48555;50.952;-0.120;2023-02-28T14:19:29;2.83;;;2.00;;
61393;SDS011;48555;50.952;-0.120;2023-02-28T14:30:40;3.00;;;1.98;;
61393;SDS011;48555;50.952;-0.120;2023-02-28T14:33:19;4.10;;;2.50;;
61393;SDS011;48555;50.952;-0.120;2023-02-28T14:38:22;4.28;;;2.53;;
61393;SDS011;48555;50.952;-0.120;2023-02-28T14:40:51;4.60;;;2.40;;
61393;SDS011;48555;50.952;-0.120;2023-02-28T14:43:23;3.60;;;2.30;;
61393;SDS011;48555;50.952;-0.120;2023-02-28T14:46:00;4.60;;;2.70;;
61393;SDS011;48555;50.952;-0.120;2023-02-28T14:48:27;3.20;;;1.88;;
61393;SDS011;48555;50.952;-0.120;2023-02-28T14:50:56;3.70;;;2.28;;
61393;SDS011;48555;50.952;-0.120;2023-02-28T14:53:25;3.85;;;2.50;;
61393;SDS011;48555;50.952;-0.120;2023-02-28T14:55:53;4.05;;;2.20;;
61393;SDS011;48555;50.952;-0.120;2023-02-28T14:58:25;3.42;;;2.17;;
61393;SDS011;48555;50.952;-0.120;2023-02-28T15:00:54;3.63;;;2.28;;
61393;SDS011;48555;50.952;-0.120;2023-02-28T15:06:01;3.63;;;2.25;;
61393;SDS011;48555;50.952;-0.120;2023-02-28T15:08:31;3.63;;;2.22;;
61393;SDS011;48555;50.952;-0.120;2023-02-28T15:11:01;4.90;;;2.60;;
61393;SDS011;48555;50.952;-0.120;2023-02-28T15:13:43;4.15;;;2.17;;
61393;SDS011;48555;50.952;-0.120;2023-02-28T15:16:31;4.28;;;2.20;;
61393;SDS011;48555;50.952;-0.120;2023-02-28T15:21:35;2.83;;;2.05;;
61393;SDS011;48555;50.952;-0.120;2023-02-28T15:24:12;3.08;;;2.05;;
61393;SDS011;48555;50.952;-0.120;2023-02-28T15:26:49;4.03;;;2.28;;
61393;SDS011;48555;50.952;-0.120;2023-02-28T15:29:20;3.17;;;2.08;;
61393;SDS011;48555;50.952;-0.120;2023-02-28T15:31:49;3.67;;;2.30;;
61393;SDS011;48555;50.952;-0.120;2023-02-28T15:34:24;3.92;;;2.20;;
61393;SDS011;48555;50.952;-0.120;2023-02-28T15:36:53;3.65;;;2.05;;
61393;SDS011;48555;50.952;-0.120;2023-02-28T15:39:23;2.80;;;2.00;;
61393;SDS011;48555;50.952;-0.120;2023-02-28T15:41:51;4.55;;;2.00;;
61393;SDS011;48555;50.952;-0.120;2023-02-28T15:44:34;4.22;;;2.40;;
61393;SDS011;48555;50.952;-0.120;2023-02-28T15:47:01;3.15;;;2.10;;
61393;SDS011;48555;50.952;-0.120;2023-02-28T15:49:29;4.45;;;2.17;;
61393;SDS011;48555;50.952;-0.120;2023-02-28T15:52:03;3.00;;;1.88;;
61393;SDS011;48555;50.952;-0.120;2023-02-28T15:54:30;4.53;;;2.42;;
61393;SDS011;48555;50.952;-0.120;2023-02-28T15:57:01;4.20;;;2.30;;
61393;SDS011;48555;50.952;-0.120;2023-02-28T15:59:33;4.70;;;2.58;;
61393;SDS011;48555;50.952;-0.120;2023-02-28T16:04:35;4.45;;;2.22;;
61393;SDS011;48555;50.952;-0.120;2023-02-28T16:07:02;3.90;;;2.40;;
61393;SDS011;48555;50.952;-0.120;2023-02-28T16:09:29;3.63;;;2.30;;
61393;SDS011;48555;50.952;-0.120;2023-02-28T16:11:55;3.38;;;2.30;;
61393;SDS011;48555;50.952;-0.120;2023-02-28T16:14:25;2.63;;;1.95;;
61393;SDS011;48555;50.952;-0.120;2023-02-28T16:17:02;3.20;;;2.00;;
61393;SDS011;48555;50.952;-0.120;2023-02-28T16:19:29;2.97;;;1.95;;
61393;SDS011;48555;50.952;-0.120;2023-02-28T16:21:55;3.03;;;2.00;;
61393;SDS011;48555;50.952;-0.120;2023-02-28T16:24:21;2.88;;;1.88;;
61393;SDS011;48555;50.952;-0.120;2023-02-28T16:26:47;5.07;;;1.90;;
61393;SDS011;48555;50.952;-0.120;2023-02-28T16:29:22;3.60;;;2.03;;
61393;SDS011;48555;50.952;-0.120;2023-02-28T16:31:52;4.18;;;1.92;;
61393;SDS011;48555;50.952;-0.120;2023-02-28T16:34:18;3.40;;;1.88;;
61393;SDS011;48555;50.952;-0.120;2023-02-28T16:36:45;3.50;;;1.90;;
61393;SDS011;48555;50.952;-0.120;2023-02-28T16:39:11;3.90;;;2.13;;
61393;SDS011;48555;50.952;-0.120;2023-02-28T16:41:37;3.42;;;1.90;;
61393;SDS011;48555;50.952;-0.120;2023-02-28T16:44:02;5.38;;;2.20;;
61393;SDS011;48555;50.952;-0.120;2023-02-28T16:46:35;3.22;;;2.30;;
61393;SDS011;48555;50.952;-0.120;2023-02-28T16:49:01;3.03;;;1.95;;
61393;SDS011;48555;50.952;-0.120;2023-02-28T16:51:27;2.88;;;1.95;;
61393;SDS011;48555;50.952;-0.120;2023-02-28T16:53:52;3.03;;;1.67;;
61393;SDS011;48555;50.952;-0.120;2023-02-28T16:56:18;3.28;;;2.08;;
61393;SDS011;48555;50.952;-0.120;2023-02-28T16:58:46;4.95;;;2.47;;
61393;SDS011;48555;50.952;-0.120;2023-02-28T17:01:12;5.10;;;2.30;;
61393;SDS011;48555;50.952;-0.120;2023-02-28T17:03:38;3.22;;;2.20;;
61393;SDS011;48555;50.952;-0.120;2023-02-28T17:06:05;3.20;;;2.00;;
61393;SDS011;48555;50.952;-0.120;2023-02-28T17:08:31;4.07;;;2.08;;
61393;SDS011;48555;50.952;-0.120;2023-02-28T17:10:57;3.22;;;2.03;;
61393;SDS011;48555;50.952;-0.120;2023-02-28T17:13:23;5.00;;;2.20;;
61393;SDS011;48555;50.952;-0.120;2023-02-28T17:15:49;5.13;;;2.10;;
61393;SDS011;48555;50.952;-0.120;2023-02-28T17:18:15;5.30;;;2.13;;
61393;SDS011;48555;50.952;-0.120;2023-02-28T17:20:43;2.47;;;1.80;;
61393;SDS011;48555;50.952;-0.120;2023-02-28T17:23:09;2.47;;;1.83;;
61393;SDS011;48555;50.952;-0.120;2023-02-28T17:25:35;2.05;;;1.58;;